Time;durP1;ratioP1;P1;durP2;ratioP2;P2;SDS_P1;SDS_P2;PMS_P1;PMS_P2;Temp;Humidity;BMP_temperature;BMP_pressure;BME280_temperature;BME280_humidity;BME280_pressure;Samples;Min_cycle;Max_cycle;Signal;HPM_P1;HPM_P2
2023/02/09 00:01:58;;;;;;;;;;;;;;;31.25;12.29;103034.34;5077946;28;1268;-27
2023/02/09 00:04:23;;;;;;;;;;;;;;;31.32;12.07;103039.16;5077752;28;1902;-28
2023/02/09 00:06:48;;;;;;;;;;;;;;;31.40;12.04;103041.97;5077396;28;1066;-28
2023/02/09 00:09:14;;;;;;;;;;;;;;;31.15;12.27;103049.88;5077856;28;1218;-29
2023/02/09 00:14:23;;;;;;;;;;;;;;;31.11;12.17;103060.22;5066217;28;1029;-28
2023/02/09 00:16:49;;;;;;;;;;;;;;;31.01;12.38;103059.44;5077498;28;979;-30
2023/02/09 00:19:14;;;;;;;;;;;;;;;30.13;12.90;103061.53;5077498;28;1071;-29
2023/02/09 00:21:39;;;;;;;;;;;;;;;29.76;13.51;103061.31;5077343;28;1070;-28
2023/02/09 00:24:05;;;;;;;;;;;;;;;30.63;12.81;103062.22;5059399;28;2672;-29
2023/02/09 00:26:30;;;;;;;;;;;;;;;30.95;12.51;103060.06;5077585;28;996;-27
2023/02/09 00:28:56;;;;;;;;;;;;;;;31.20;12.35;103069.31;5077034;28;1560;-29
2023/02/09 00:31:21;;;;;;;;;;;;;;;31.28;12.17;103060.38;5077250;28;1078;-29
2023/02/09 00:33:46;;;;;;;;;;;;;;;31.18;12.23;103059.59;5076728;28;1095;-31
2023/02/09 00:36:12;;;;;;;;;;;;;;;31.14;12.31;103051.75;5076951;28;1003;-29
2023/02/09 00:38:37;;;;;;;;;;;;;;;31.04;12.49;103060.00;5077215;28;1170;-29
2023/02/09 00:41:03;;;;;;;;;;;;;;;31.07;12.34;103055.22;5076871;28;1198;-29
2023/02/09 00:43:28;;;;;;;;;;;;;;;30.97;12.28;103072.47;5077031;28;1893;-27
2023/02/09 00:45:53;;;;;;;;;;;;;;;31.27;12.31;103061.38;5077098;28;1059;-30
2023/02/09 00:48:18;;;;;;;;;;;;;;;30.95;12.35;103062.78;5076830;28;893;-28
2023/02/09 00:50:44;;;;;;;;;;;;;;;31.23;12.41;103066.25;5076847;28;1163;-28
2023/02/09 00:53:09;;;;;;;;;;;;;;;30.78;12.52;103068.84;5078456;28;2195;-28
2023/02/09 00:55:34;;;;;;;;;;;;;;;30.72;12.46;103055.88;5081990;28;1119;-32
2023/02/09 00:58:00;;;;;;;;;;;;;;;30.48;12.74;103064.56;5076805;28;1099;-31
2023/02/09 01:00:25;;;;;;;;;;;;;;;30.27;12.91;103069.22;5076504;28;1181;-35
2023/02/09 01:02:50;;;;;;;;;;;;;;;30.50;12.94;103060.69;5076504;28;1480;-28
2023/02/09 01:05:16;;;;;;;;;;;;;;;31.03;12.48;103055.53;5076109;28;1969;-29
2023/02/09 01:07:41;;;;;;;;;;;;;;;31.01;12.39;103063.00;5076650;28;1189;-30
2023/02/09 01:10:06;;;;;;;;;;;;;;;31.06;12.17;103054.41;5076255;28;1089;-31
2023/02/09 01:12:32;;;;;;;;;;;;;;;30.57;12.70;103065.50;5076366;28;1150;-31
2023/02/09 01:14:57;;;;;;;;;;;;;;;30.88;12.39;103057.94;5075946;28;1079;-27
2023/02/09 01:17:23;;;;;;;;;;;;;;;30.58;12.72;103065.38;5076630;28;1178;-30
2023/02/09 01:19:52;;;;;;;;;;;;;;;29.64;13.23;103065.19;5076513;28;1039;-28
2023/02/09 01:22:17;;;;;;;;;;;;;;;30.64;12.82;103058.47;5076545;28;1443;-30
2023/02/09 01:24:42;;;;;;;;;;;;;;;30.60;12.48;103070.63;5075992;28;2530;-30
2023/02/09 01:27:08;;;;;;;;;;;;;;;30.41;12.74;103067.03;5076022;28;1032;-28
2023/02/09 01:29:33;;;;;;;;;;;;;;;30.87;12.36;103068.97;5076226;28;1047;-27
2023/02/09 01:31:58;;;;;;;;;;;;;;;30.82;12.41;103064.00;5076335;28;1063;-28
2023/02/09 01:34:23;;;;;;;;;;;;;;;30.73;12.45;103071.16;5075844;28;1027;-27
2023/02/09 01:36:49;;;;;;;;;;;;;;;30.85;12.41;103071.81;5075678;28;944;-28
2023/02/09 01:39:14;;;;;;;;;;;;;;;31.07;12.37;103075.13;5076066;28;1155;-27
2023/02/09 01:41:40;;;;;;;;;;;;;;;30.91;12.50;103073.94;5075821;28;1051;-28
2023/02/09 01:44:06;;;;;;;;;;;;;;;31.01;12.36;103062.16;5075680;28;1963;-31
2023/02/09 01:46:35;;;;;;;;;;;;;;;30.37;12.68;103069.19;5057773;28;1119;-27
2023/02/09 01:49:07;;;;;;;;;;;;;;;30.15;12.92;103082.09;5075334;28;1233;-28
2023/02/09 01:51:34;;;;;;;;;;;;;;;30.19;12.89;103075.38;5057979;28;1178;-30
2023/02/09 01:53:59;;;;;;;;;;;;;;;29.61;13.31;103077.19;5084052;28;2241;-27
2023/02/09 01:56:27;;;;;;;;;;;;;;;30.87;12.67;103083.41;5076229;28;1047;-28
2023/02/09 01:58:52;;;;;;;;;;;;;;;31.15;12.43;103083.38;5057708;28;1087;-31
2023/02/09 02:01:17;;;;;;;;;;;;;;;31.20;12.13;103084.78;5075862;28;1001;-28
2023/02/09 02:03:43;;;;;;;;;;;;;;;30.65;12.65;103081.91;5076704;28;1971;-29
2023/02/09 02:06:09;;;;;;;;;;;;;;;30.98;12.26;103086.94;5080007;28;1134;-26
2023/02/09 02:08:39;;;;;;;;;;;;;;;31.08;12.38;103076.00;5062077;28;1080;-28
2023/02/09 02:11:04;;;;;;;;;;;;;;;31.14;12.31;103078.94;5061921;28;1218;-27
2023/02/09 02:13:29;;;;;;;;;;;;;;;31.23;12.34;103074.44;5080019;28;1003;-27
2023/02/09 02:15:57;;;;;;;;;;;;;;;30.22;12.75;103079.66;5079842;28;997;-28
2023/02/09 02:18:41;;;;;;;;;;;;;;;28.65;14.01;103079.41;5079631;28;1115;-27
2023/02/09 02:21:15;;;;;;;;;;;;;;;28.73;14.32;103087.69;5079594;28;1053;-32
2023/02/09 02:23:40;;;;;;;;;;;;;;;28.90;14.34;103087.16;5080019;28;2256;-29
2023/02/09 02:26:17;;;;;;;;;;;;;;;29.02;13.32;103088.81;5078893;28;899;-30
2023/02/09 02:28:54;;;;;;;;;;;;;;;27.92;14.60;103082.97;5067212;28;1049;-29
2023/02/09 02:31:38;;;;;;;;;;;;;;;28.32;14.73;103087.63;5079903;28;1067;-28
2023/02/09 02:34:06;;;;;;;;;;;;;;;28.31;14.75;103090.47;5079613;28;1038;-28
2023/02/09 02:36:54;;;;;;;;;;;;;;;29.92;13.42;103087.84;5060767;28;1087;-29
2023/02/09 02:39:21;;;;;;;;;;;;;;;30.63;12.87;103092.94;5070648;28;1502;-28
2023/02/09 02:44:37;;;;;;;;;;;;;;;29.87;13.36;103098.28;5078951;28;1906;-28
2023/02/09 02:47:04;;;;;;;;;;;;;;;30.63;12.89;103102.97;5061145;28;1174;-27
2023/02/09 02:49:37;;;;;;;;;;;;;;;31.07;12.60;103096.88;5078689;28;1137;-28
2023/02/09 02:52:03;;;;;;;;;;;;;;;31.16;12.49;103105.97;5061287;28;1051;-28
2023/02/09 02:54:30;;;;;;;;;;;;;;;31.22;12.48;103107.22;5068953;28;2242;-32
2023/02/09 02:56:56;;;;;;;;;;;;;;;31.18;12.63;103108.53;5061387;28;1131;-27
2023/02/09 02:59:22;;;;;;;;;;;;;;;31.10;12.60;103107.44;5061552;28;1067;-29
2023/02/09 03:01:55;;;;;;;;;;;;;;;31.21;12.34;103103.66;5060925;28;894;-29
2023/02/09 03:04:20;;;;;;;;;;;;;;;31.34;12.56;103107.84;5061130;28;1902;-28
2023/02/09 03:06:45;;;;;;;;;;;;;;;31.14;12.33;103113.44;5060809;28;1040;-32
2023/02/09 03:09:11;;;;;;;;;;;;;;;31.27;12.35;103104.88;5078634;28;1143;-30
2023/02/09 03:11:38;;;;;;;;;;;;;;;31.38;12.33;103107.38;5078865;28;1063;-27
2023/02/09 03:14:06;;;;;;;;;;;;;;;31.38;12.17;103104.66;5073396;28;884;-29
2023/02/09 03:16:51;;;;;;;;;;;;;;;31.49;12.26;103106.31;5078767;28;1091;-29
2023/02/09 03:19:31;;;;;;;;;;;;;;;31.16;12.48;103106.81;5060723;28;1130;-32
2023/02/09 03:22:17;;;;;;;;;;;;;;;31.30;12.45;103106.47;5078289;28;1044;-29
2023/02/09 03:24:47;;;;;;;;;;;;;;;30.90;12.72;103109.41;5067181;28;2480;-29
2023/02/09 03:27:20;;;;;;;;;;;;;;;30.84;12.81;103110.88;5077927;28;995;-29
2023/02/09 03:29:47;;;;;;;;;;;;;;;30.62;12.84;103098.50;5060825;28;1166;-29
2023/02/09 03:32:12;;;;;;;;;;;;;;;31.01;12.95;103106.47;5060761;28;1063;-27
2023/02/09 03:34:37;;;;;;;;;;;;;;;31.08;12.52;103109.44;5060974;28;1106;-27
2023/02/09 03:37:03;;;;;;;;;;;;;;;31.19;12.55;103102.09;5059847;28;1075;-28
2023/02/09 03:39:28;;;;;;;;;;;;;;;31.17;12.82;103104.97;5078456;28;996;-31
2023/02/09 03:41:53;;;;;;;;;;;;;;;30.84;12.81;103108.16;5078437;28;999;-26
2023/02/09 03:44:27;;;;;;;;;;;;;;;30.67;13.32;103107.06;5078149;28;1952;-30
2023/02/09 03:46:54;;;;;;;;;;;;;;;31.02;12.87;103101.91;5077422;28;1171;-30
2023/02/09 03:49:19;;;;;;;;;;;;;;;30.52;13.08;103099.44;5077878;28;1055;-30
2023/02/09 03:51:44;;;;;;;;;;;;;;;30.89;13.02;103105.00;5078195;28;1031;-28
2023/02/09 03:54:10;;;;;;;;;;;;;;;31.16;12.83;103101.38;5085555;28;2305;-28
2023/02/09 03:56:36;;;;;;;;;;;;;;;31.29;12.69;103097.44;5078341;28;1038;-29
2023/02/09 03:59:01;;;;;;;;;;;;;;;30.89;13.05;103103.16;5078215;28;1166;-31
2023/02/09 04:01:27;;;;;;;;;;;;;;;30.85;13.09;103107.16;5077474;28;1020;-28
2023/02/09 04:03:52;;;;;;;;;;;;;;;30.84;13.06;103107.31;5077673;28;1901;-30
2023/02/09 04:06:17;;;;;;;;;;;;;;;30.55;13.28;103109.13;5077607;28;1098;-28
2023/02/09 04:08:43;;;;;;;;;;;;;;;30.09;13.72;103101.69;5077610;28;1039;-27
2023/02/09 04:11:08;;;;;;;;;;;;;;;29.28;14.42;103107.25;5077728;28;1004;-29
2023/02/09 04:13:33;;;;;;;;;;;;;;;29.09;14.90;103102.66;5077301;28;1055;-30
2023/02/09 04:15:58;;;;;;;;;;;;;;;28.94;14.96;103097.59;5077416;28;1158;-31
2023/02/09 04:18:24;;;;;;;;;;;;;;;29.17;14.72;103104.66;5077682;28;1067;-31
2023/02/09 04:20:49;;;;;;;;;;;;;;;29.06;14.79;103106.50;5077414;28;1095;-31
2023/02/09 04:23:14;;;;;;;;;;;;;;;30.01;14.24;103105.09;5077148;28;2367;-29
2023/02/09 04:25:40;;;;;;;;;;;;;;;29.50;14.51;103109.81;5077262;28;1910;-30
2023/02/09 04:28:05;;;;;;;;;;;;;;;29.03;15.20;103112.19;5076163;28;1043;-32
2023/02/09 04:30:30;;;;;;;;;;;;;;;29.47;14.82;103105.56;5077493;28;1031;-28
2023/02/09 04:32:56;;;;;;;;;;;;;;;29.69;14.78;103118.03;5077077;28;1192;-29
2023/02/09 04:35:21;;;;;;;;;;;;;;;29.10;15.28;103112.50;5077091;28;1051;-29
2023/02/09 04:37:46;;;;;;;;;;;;;;;29.18;15.40;103109.94;5076580;28;1118;-30
2023/02/09 04:40:12;;;;;;;;;;;;;;;29.17;15.32;103107.38;5077459;28;1186;-29
2023/02/09 04:42:37;;;;;;;;;;;;;;;29.34;15.32;103106.66;5076839;28;1548;-30
2023/02/09 04:45:03;;;;;;;;;;;;;;;29.16;15.45;103103.78;5077066;28;1901;-27
2023/02/09 04:47:28;;;;;;;;;;;;;;;29.26;15.37;103111.09;5076780;28;1070;-29
2023/02/09 04:49:53;;;;;;;;;;;;;;;26.24;13.99;103111.69;5077266;28;1158;-27
2023/02/09 04:52:19;;;;;;;;;;;;;;;27.41;15.32;103091.63;5076387;28;1169;-26
2023/02/09 04:54:44;;;;;;;;;;;;;;;27.66;15.56;103103.09;5084544;28;2478;-27
2023/02/09 04:59:53;;;;;;;;;;;;;;;29.58;14.41;103116.25;5076444;28;1024;-25
2023/02/09 05:02:18;;;;;;;;;;;;;;;29.51;14.25;103112.38;5076814;28;903;-28
2023/02/09 05:04:44;;;;;;;;;;;;;;;29.35;14.58;103115.66;5076043;28;1905;-27
2023/02/09 05:07:09;;;;;;;;;;;;;;;30.54;13.68;103130.03;5076573;28;1106;-28
2023/02/09 05:09:34;;;;;;;;;;;;;;;31.00;13.14;103125.66;5076694;28;1070;-28
2023/02/09 05:12:00;;;;;;;;;;;;;;;31.22;13.02;103129.81;5076512;28;1023;-26
2023/02/09 05:14:25;;;;;;;;;;;;;;;29.69;14.54;103130.72;5075833;28;844;-26
2023/02/09 05:16:50;;;;;;;;;;;;;;;30.05;14.36;103128.25;5075994;28;1095;-28
2023/02/09 05:19:15;;;;;;;;;;;;;;;30.26;14.14;103138.09;5076579;28;1150;-31
2023/02/09 05:21:41;;;;;;;;;;;;;;;30.42;13.89;103136.63;5075812;28;1497;-30
2023/02/09 05:24:06;;;;;;;;;;;;;;;29.45;14.85;103126.53;5076889;28;2510;-30
2023/02/09 05:26:31;;;;;;;;;;;;;;;30.01;14.51;103125.97;5076432;28;995;-27
2023/02/09 05:28:57;;;;;;;;;;;;;;;29.39;14.88;103132.53;5076014;28;1104;-25
2023/02/09 05:31:22;;;;;;;;;;;;;;;29.73;14.64;103125.88;5076168;28;1059;-25
2023/02/09 05:33:47;;;;;;;;;;;;;;;29.97;14.58;103141.69;5076204;28;1126;-26
2023/02/09 05:36:12;;;;;;;;;;;;;;;29.86;14.72;103142.72;5076238;28;1031;-29
2023/02/09 05:38:38;;;;;;;;;;;;;;;30.50;14.40;103139.44;5075149;28;909;-32
2023/02/09 05:41:04;;;;;;;;;;;;;;;29.97;14.53;103140.81;5076386;28;1227;-27
2023/02/09 05:43:30;;;;;;;;;;;;;;;29.96;14.41;103140.00;5076436;28;1186;-26
2023/02/09 05:45:55;;;;;;;;;;;;;;;31.20;13.70;103150.88;5075985;28;2249;-26
2023/02/09 05:48:20;;;;;;;;;;;;;;;30.06;14.29;103129.94;5076267;28;1002;-28
2023/02/09 05:50:46;;;;;;;;;;;;;;;29.58;14.87;103140.66;5075836;28;1140;-27
2023/02/09 05:53:11;;;;;;;;;;;;;;;29.34;15.37;103154.63;5078138;28;2304;-27
2023/02/09 05:55:37;;;;;;;;;;;;;;;29.62;14.70;103145.84;5081003;28;979;-24
2023/02/09 05:58:02;;;;;;;;;;;;;;;29.08;15.34;103139.72;5076072;28;1067;-26
2023/02/09 06:00:28;;;;;;;;;;;;;;;28.78;15.66;103138.75;5075366;28;1194;-25
2023/02/09 06:02:54;;;;;;;;;;;;;;;29.39;15.59;103152.38;5075577;28;861;-25
2023/02/09 06:05:20;;;;;;;;;;;;;;;29.48;15.40;103131.66;5076005;28;2025;-26
2023/02/09 06:07:46;;;;;;;;;;;;;;;30.68;14.21;103134.09;5075748;28;1008;-30
2023/02/09 06:10:11;;;;;;;;;;;;;;;29.28;15.37;103125.38;5075460;28;1482;-30
2023/02/09 06:12:36;;;;;;;;;;;;;;;29.08;15.53;103128.03;5075933;28;1040;-25
2023/02/09 06:15:02;;;;;;;;;;;;;;;29.17;15.54;103126.34;5075580;28;1177;-26
2023/02/09 06:17:27;;;;;;;;;;;;;;;29.38;15.36;103117.25;5076024;28;1079;-27
2023/02/09 06:19:52;;;;;;;;;;;;;;;29.10;15.69;103126.03;5075757;28;1133;-28
2023/02/09 06:22:18;;;;;;;;;;;;;;;29.40;15.42;103116.09;5075081;28;1015;-26
2023/02/09 06:24:43;;;;;;;;;;;;;;;29.62;15.16;103119.56;5076157;28;2599;-29
2023/02/09 06:27:08;;;;;;;;;;;;;;;29.54;15.34;103122.13;5075276;28;877;-27
2023/02/09 06:29:33;;;;;;;;;;;;;;;29.58;15.03;103113.53;5057191;28;1301;-28
2023/02/09 06:31:59;;;;;;;;;;;;;;;29.38;15.40;103120.81;5075920;28;1142;-25
2023/02/09 06:34:24;;;;;;;;;;;;;;;29.41;15.26;103128.66;5075527;28;1150;-25
2023/02/09 06:36:50;;;;;;;;;;;;;;;29.65;15.14;103131.97;5075562;28;1040;-25
2023/02/09 06:39:15;;;;;;;;;;;;;;;29.91;14.92;103121.41;5075142;28;1203;-27
2023/02/09 06:41:40;;;;;;;;;;;;;;;29.92;14.70;103128.56;5075561;28;1020;-29
2023/02/09 06:44:05;;;;;;;;;;;;;;;29.64;14.96;103122.16;5075578;28;1898;-28
2023/02/09 06:46:31;;;;;;;;;;;;;;;30.05;14.48;103114.69;5075428;28;1051;-27
2023/02/09 06:48:56;;;;;;;;;;;;;;;30.65;14.05;103119.94;5075417;28;1147;-26
2023/02/09 06:51:21;;;;;;;;;;;;;;;30.31;14.46;103110.50;5078620;28;1218;-28
2023/02/09 06:53:47;;;;;;;;;;;;;;;30.81;13.93;103119.34;5086200;28;1651;-26
2023/02/09 06:56:12;;;;;;;;;;;;;;;30.23;14.27;103105.81;5079230;28;1098;-26
2023/02/09 06:58:38;;;;;;;;;;;;;;;30.82;14.13;103112.03;5079242;28;976;-29
2023/02/09 07:01:07;;;;;;;;;;;;;;;30.67;14.15;103107.94;5079056;28;1075;-25
2023/02/09 07:03:32;;;;;;;;;;;;;;;30.74;14.16;103107.31;5078443;28;1082;-28
2023/02/09 07:06:01;;;;;;;;;;;;;;;30.03;14.67;103105.81;5078819;28;1969;-26
2023/02/09 07:08:27;;;;;;;;;;;;;;;29.93;14.75;103099.53;5078441;28;1085;-26
2023/02/09 07:10:52;;;;;;;;;;;;;;;29.63;14.88;103096.88;5078995;28;1039;-24
2023/02/09 07:13:17;;;;;;;;;;;;;;;29.47;15.24;103092.00;5078849;28;1362;-26
2023/02/09 07:15:42;;;;;;;;;;;;;;;29.54;15.17;103089.56;5078135;28;860;-25
2023/02/09 07:18:08;;;;;;;;;;;;;;;29.56;14.89;103082.16;5079301;28;1175;-31
2023/02/09 07:20:33;;;;;;;;;;;;;;;29.60;15.14;103090.88;5065321;28;1217;-26
2023/02/09 07:22:59;;;;;;;;;;;;;;;29.32;15.47;103076.16;5078338;28;2433;-28
2023/02/09 07:25:24;;;;;;;;;;;;;;;29.35;15.31;103080.44;5078159;28;1922;-28
2023/02/09 07:27:50;;;;;;;;;;;;;;;29.45;15.21;103078.59;5077870;28;1511;-28
2023/02/09 07:30:15;;;;;;;;;;;;;;;29.58;14.83;103077.41;5078264;28;1144;-25
2023/02/09 07:32:41;;;;;;;;;;;;;;;29.52;15.09;103075.28;5078386;28;1111;-25
2023/02/09 07:35:06;;;;;;;;;;;;;;;29.86;14.79;103076.72;5077698;28;1083;-26
2023/02/09 07:37:31;;;;;;;;;;;;;;;30.44;14.20;103083.03;5077962;28;1141;-26
2023/02/09 07:39:57;;;;;;;;;;;;;;;29.76;14.63;103082.16;5060293;28;1373;-31
2023/02/09 07:42:22;;;;;;;;;;;;;;;29.87;14.59;103105.56;5078276;28;1028;-27
2023/02/09 07:44:47;;;;;;;;;;;;;;;29.72;14.85;103108.72;5078291;28;1914;-28
2023/02/09 07:47:13;;;;;;;;;;;;;;;29.58;14.89;103121.69;5078099;28;996;-25
2023/02/09 07:49:38;;;;;;;;;;;;;;;29.57;14.69;103119.97;5078147;28;1100;-25
2023/02/09 07:52:04;;;;;;;;;;;;;;;29.71;14.83;103117.88;5077800;28;916;-26
2023/02/09 07:54:29;;;;;;;;;;;;;;;30.07;14.52;103122.69;5085308;28;2442;-25
2023/02/09 07:56:54;;;;;;;;;;;;;;;30.81;14.06;103126.63;5078324;28;1004;-29
2023/02/09 07:59:20;;;;;;;;;;;;;;;30.33;14.08;103118.50;5077900;28;1102;-28
2023/02/09 08:01:45;;;;;;;;;;;;;;;30.20;14.09;103106.09;5077095;28;1087;-28
2023/02/09 08:04:10;;;;;;;;;;;;;;;30.09;14.10;103123.41;5077444;28;1910;-25
2023/02/09 08:06:36;;;;;;;;;;;;;;;31.11;13.92;103127.31;5077703;28;1027;-25
2023/02/09 08:09:02;;;;;;;;;;;;;;;31.01;13.83;103117.34;5077934;28;1167;-27
2023/02/09 08:11:28;;;;;;;;;;;;;;;31.25;13.44;103110.47;5077595;28;1091;-28
2023/02/09 08:13:54;;;;;;;;;;;;;;;30.87;13.84;103116.03;5077316;28;1086;-26
2023/02/09 08:16:20;;;;;;;;;;;;;;;30.57;14.09;103111.69;5077494;28;898;-25
2023/02/09 08:18:52;;;;;;;;;;;;;;;31.22;13.62;103110.78;5059594;28;1222;-25
2023/02/09 08:21:18;;;;;;;;;;;;;;;30.92;13.67;103112.84;5059500;28;1187;-28
2023/02/09 08:23:43;;;;;;;;;;;;;;;30.37;14.19;103115.34;5077338;28;2450;-28
2023/02/09 08:26:10;;;;;;;;;;;;;;;30.81;13.87;103113.91;5077442;28;1023;-27
2023/02/09 08:28:35;;;;;;;;;;;;;;;30.94;13.87;103123.56;5059051;28;1035;-25
2023/02/09 08:31:00;;;;;;;;;;;;;;;30.74;13.85;103120.91;5059717;28;1087;-25
2023/02/09 08:33:25;;;;;;;;;;;;;;;30.81;13.85;103124.78;5077310;28;1174;-27
2023/02/09 08:35:51;;;;;;;;;;;;;;;31.43;13.39;103115.09;5076503;28;1083;-25
2023/02/09 08:38:17;;;;;;;;;;;;;;;30.70;13.76;103114.91;5076837;28;1497;-27
2023/02/09 08:40:43;;;;;;;;;;;;;;;30.53;13.90;103114.72;5077066;28;1019;-27
2023/02/09 08:43:08;;;;;;;;;;;;;;;30.55;13.78;103120.84;5076550;28;1166;-27
2023/02/09 08:45:37;;;;;;;;;;;;;;;30.83;13.86;103122.75;5076450;28;1975;-26
2023/02/09 08:48:02;;;;;;;;;;;;;;;30.34;14.00;103125.63;5077002;28;1058;-25
2023/02/09 08:50:27;;;;;;;;;;;;;;;30.14;14.01;103129.25;5076896;28;1141;-26
2023/02/09 08:52:53;;;;;;;;;;;;;;;30.47;14.08;103130.75;5076218;28;970;-26
2023/02/09 08:55:18;;;;;;;;;;;;;;;31.04;13.37;103130.66;5084136;28;2533;-27
2023/02/09 08:57:43;;;;;;;;;;;;;;;30.61;13.95;103119.41;5076076;28;1235;-25
2023/02/09 09:00:09;;;;;;;;;;;;;;;30.96;13.40;103122.41;5076416;28;1059;-25
2023/02/09 09:02:34;;;;;;;;;;;;;;;31.13;13.12;103123.44;5077122;28;1103;-26
2023/02/09 09:04:59;;;;;;;;;;;;;;;31.74;12.92;103122.88;5076128;28;1906;-26
2023/02/09 09:07:25;;;;;;;;;;;;;;;31.85;12.78;103119.03;5076462;28;1127;-28
2023/02/09 09:09:50;;;;;;;;;;;;;;;31.57;12.86;103115.56;5076531;28;1174;-27
2023/02/09 09:12:15;;;;;;;;;;;;;;;30.89;13.22;103129.44;5076018;28;1063;-26
2023/02/09 09:14:43;;;;;;;;;;;;;;;30.83;13.22;103119.19;5076078;28;1502;-25
2023/02/09 09:17:08;;;;;;;;;;;;;;;30.53;13.45;103113.88;5076166;28;891;-26
2023/02/09 09:19:33;;;;;;;;;;;;;;;30.67;13.09;103109.78;5076744;28;1177;-27
2023/02/09 09:22:01;;;;;;;;;;;;;;;30.78;13.18;103116.91;5076227;28;1283;-26
2023/02/09 09:24:27;;;;;;;;;;;;;;;30.77;13.62;103112.47;5084662;28;2625;-28
2023/02/09 09:26:52;;;;;;;;;;;;;;;31.18;12.86;103108.53;5076015;28;1063;-26
2023/02/09 09:29:18;;;;;;;;;;;;;;;30.87;13.14;103105.16;5075945;28;926;-30
2023/02/09 09:31:43;;;;;;;;;;;;;;;30.91;13.10;103089.41;5076075;28;1048;-28
2023/02/09 09:34:08;;;;;;;;;;;;;;;30.12;13.55;103086.94;5076151;28;1103;-26
2023/02/09 09:36:34;;;;;;;;;;;;;;;30.64;13.32;103088.38;5076021;28;1034;-27
2023/02/09 09:38:59;;;;;;;;;;;;;;;30.99;13.26;103092.22;5076363;28;1048;-24
2023/02/09 09:41:27;;;;;;;;;;;;;;;31.74;12.52;103082.03;5075992;28;922;-26
2023/02/09 09:43:52;;;;;;;;;;;;;;;31.64;12.21;103089.44;5076062;28;1975;-30
2023/02/09 09:46:18;;;;;;;;;;;;;;;31.56;12.50;103087.53;5076365;28;1083;-25
2023/02/09 09:48:47;;;;;;;;;;;;;;;32.24;12.16;103087.84;5076101;28;1115;-27
2023/02/09 09:51:31;;;;;;;;;;;;;;;32.03;11.93;103079.22;5058074;28;1251;-29
2023/02/09 09:53:56;;;;;;;;;;;;;;;31.01;12.16;103073.03;5084006;28;2366;-26
2023/02/09 09:56:21;;;;;;;;;;;;;;;30.79;12.67;103078.72;5076093;28;1105;-26
2023/02/09 09:58:47;;;;;;;;;;;;;;;31.59;12.46;103075.47;5076016;28;1052;-27
2023/02/09 10:01:13;;;;;;;;;;;;;;;30.85;12.44;103070.97;5057852;28;1035;-26
2023/02/09 10:03:38;;;;;;;;;;;;;;;30.70;12.93;103068.72;5075115;28;1071;-26
2023/02/09 10:06:13;;;;;;;;;;;;;;;30.43;13.36;103067.72;5075994;28;1911;-27
2023/02/09 10:08:43;;;;;;;;;;;;;;;29.14;14.17;103057.03;5075661;28;1103;-25
2023/02/09 10:11:09;;;;;;;;;;;;;;;29.82;13.78;103055.31;5058162;28;1064;-29
2023/02/09 10:13:43;;;;;;;;;;;;;;;31.69;12.29;103059.03;5075889;28;1086;-26
2023/02/09 10:16:17;;;;;;;;;;;;;;;31.93;12.34;103060.22;5075581;28;1043;-26
2023/02/09 10:18:43;;;;;;;;;;;;;;;32.05;11.91;103050.78;5075282;28;1036;-29
2023/02/09 10:21:11;;;;;;;;;;;;;;;32.54;11.58;103056.66;5075719;28;1223;-25
2023/02/09 10:23:38;;;;;;;;;;;;;;;32.67;11.45;103059.78;5058057;28;2318;-27
2023/02/09 10:26:06;;;;;;;;;;;;;;;31.39;12.11;103052.03;5078587;28;1883;-28
2023/02/09 10:28:33;;;;;;;;;;;;;;;31.43;12.15;103044.38;5078463;28;1205;-25
2023/02/09 10:30:59;;;;;;;;;;;;;;;31.35;12.72;103047.84;5079612;28;992;-27
2023/02/09 10:33:25;;;;;;;;;;;;;;;32.35;11.76;103048.56;5061875;28;1103;-27
2023/02/09 10:35:53;;;;;;;;;;;;;;;32.55;11.55;103061.13;5079362;28;1307;-27
2023/02/09 10:38:19;;;;;;;;;;;;;;;32.72;11.76;103062.00;5061005;28;1247;-26
2023/02/09 10:40:46;;;;;;;;;;;;;;;32.63;11.55;103061.16;5078789;28;1325;-27
2023/02/09 10:43:17;;;;;;;;;;;;;;;32.15;11.60;103058.84;5079070;28;1278;-25
2023/02/09 10:45:43;;;;;;;;;;;;;;;31.65;11.79;103066.66;5078914;28;1897;-28
2023/02/09 10:48:11;;;;;;;;;;;;;;;29.58;13.20;103064.72;5079450;28;1259;-26
2023/02/09 10:50:52;;;;;;;;;;;;;;;29.60;13.81;103071.88;5079304;28;1242;-29
2023/02/09 10:53:19;;;;;;;;;;;;;;;29.19;13.84;103060.16;5081474;28;2327;-28
2023/02/09 10:55:45;;;;;;;;;;;;;;;29.15;14.03;103068.69;5083165;28;1115;-26
2023/02/09 10:58:10;;;;;;;;;;;;;;;30.50;13.50;103070.69;5079239;28;1088;-25
2023/02/09 11:00:49;;;;;;;;;;;;;;;31.95;12.09;103067.22;5078556;28;1262;-28
2023/02/09 11:03:19;;;;;;;;;;;;;;;31.88;11.76;103061.53;5078753;28;1242;-27
2023/02/09 11:05:45;;;;;;;;;;;;;;;31.71;11.91;103068.75;5078529;28;1980;-27
2023/02/09 11:08:20;;;;;;;;;;;;;;;30.65;13.11;103071.03;5079102;28;1262;-28
2023/02/09 11:11:00;;;;;;;;;;;;;;;30.28;13.09;103070.94;5078921;28;1142;-27
2023/02/09 11:13:25;;;;;;;;;;;;;;;31.57;12.30;103072.03;5077485;28;1282;-27
2023/02/09 11:16:06;;;;;;;;;;;;;;;31.76;12.18;103074.56;5078767;28;1040;-26
2023/02/09 11:18:32;;;;;;;;;;;;;;;32.37;12.11;103062.88;5048728;28;1069;-24
2023/02/09 11:21:21;;;;;;;;;;;;;;;32.20;11.74;103064.66;5060682;28;1179;-28
2023/02/09 11:24:06;;;;;;;;;;;;;;;30.97;12.49;103061.59;5069955;28;1902;-26
2023/02/09 11:26:35;;;;;;;;;;;;;;;31.03;13.26;103065.59;5048227;28;1082;-31
2023/02/09 11:29:06;;;;;;;;;;;;;;;31.42;12.81;103059.00;5060510;28;1064;-26
2023/02/09 11:31:50;;;;;;;;;;;;;;;31.94;12.08;103060.06;5077771;28;1191;-25
2023/02/09 11:34:34;;;;;;;;;;;;;;;31.88;12.02;103055.28;5066794;28;1128;-26
2023/02/09 11:37:12;;;;;;;;;;;;;;;32.54;12.34;103059.41;5076782;28;1078;-29
2023/02/09 11:39:50;;;;;;;;;;;;;;;31.68;12.90;103068.22;5060289;28;1052;-26
2023/02/09 11:45:04;;;;;;;;;;;;;;;31.91;12.50;103063.13;5062595;28;1960;-28
2023/02/09 11:47:41;;;;;;;;;;;;;;;31.33;13.49;103063.47;5078030;28;1063;-27
2023/02/09 11:50:07;;;;;;;;;;;;;;;31.37;13.17;103054.00;5060059;28;1104;-26
2023/02/09 11:52:39;;;;;;;;;;;;;;;31.43;12.62;103054.41;5059598;28;1274;-25
2023/02/09 11:55:15;;;;;;;;;;;;;;;29.51;14.78;103052.72;5059903;28;2627;-28
2023/02/09 11:57:41;;;;;;;;;;;;;;;30.71;13.86;103043.28;5059854;28;1187;-27
2023/02/09 12:00:10;;;;;;;;;;;;;;;30.58;13.92;103038.19;5078038;28;1087;-30
2023/02/09 12:02:42;;;;;;;;;;;;;;;30.56;13.95;103034.81;5060359;28;1060;-30
2023/02/09 12:05:09;;;;;;;;;;;;;;;30.78;13.71;103035.38;5077250;28;1960;-25
2023/02/09 12:07:53;;;;;;;;;;;;;;;30.34;13.96;103038.75;5060011;28;1024;-29
2023/02/09 12:10:21;;;;;;;;;;;;;;;29.75;14.75;103031.59;5077843;28;1004;-27
2023/02/09 12:12:49;;;;;;;;;;;;;;;30.25;14.16;103032.34;5077861;28;1174;-27
2023/02/09 12:15:18;;;;;;;;;;;;;;;31.24;13.42;103027.22;5077371;28;1205;-27
2023/02/09 12:17:57;;;;;;;;;;;;;;;31.86;12.66;103027.34;5077331;28;1095;-25
2023/02/09 12:20:41;;;;;;;;;;;;;;;30.66;13.70;103013.84;5059313;28;1056;-27
2023/02/09 12:23:09;;;;;;;;;;;;;;;29.88;14.43;103021.31;5078173;28;2206;-28
2023/02/09 12:25:50;;;;;;;;;;;;;;;30.47;14.02;103027.53;5087732;28;1964;-29
2023/02/09 12:28:31;;;;;;;;;;;;;;;30.96;13.35;103023.72;5077216;28;1082;-26
2023/02/09 12:30:56;;;;;;;;;;;;;;;30.71;13.46;103026.13;5076728;28;861;-28
2023/02/09 12:33:21;;;;;;;;;;;;;;;31.15;13.58;103026.28;5077188;28;1173;-25
2023/02/09 12:36:23;;;;;;;;;;;;;;;30.25;14.08;103029.63;5076770;28;1218;-28
2023/02/09 12:38:54;;;;;;;;;;;;;;;30.31;14.16;103037.22;5059090;28;1028;-27
2023/02/09 12:41:23;;;;;;;;;;;;;;;30.42;14.00;103036.16;5076787;28;1096;-26
2023/02/09 12:43:49;;;;;;;;;;;;;;;29.90;14.49;103045.56;5076500;28;1167;-28
2023/02/09 12:46:19;;;;;;;;;;;;;;;30.81;13.97;103039.69;5076391;28;1953;-27
2023/02/09 12:49:08;;;;;;;;;;;;;;;29.54;14.87;103029.91;5058631;28;1195;-26
2023/02/09 12:51:42;;;;;;;;;;;;;;;29.61;14.64;103038.34;5065885;28;1120;-27
2023/02/09 12:54:27;;;;;;;;;;;;;;;29.37;14.84;103039.63;5084045;28;2376;-25
2023/02/09 12:56:52;;;;;;;;;;;;;;;29.73;14.68;103042.59;5076725;28;1100;-25
2023/02/09 12:59:18;;;;;;;;;;;;;;;30.67;13.88;103037.31;5059277;28;1110;-28
2023/02/09 13:02:02;;;;;;;;;;;;;;;30.91;13.84;103030.44;5076279;28;1023;-27